sensor_id;sensor_type;location;lat;lon;timestamp;P1;durP1;ratioP1;P2;durP2;ratioP2
59512;SDS011;45330;51.634;5.562;2023-07-31T00:01:51;32.83;;;13.40;;
59512;SDS011;45330;51.634;5.562;2023-07-31T00:04:17;35.95;;;13.45;;
59512;SDS011;45330;51.634;5.562;2023-07-31T00:06:42;31.38;;;12.75;;
59512;SDS011;45330;51.634;5.562;2023-07-31T00:09:07;33.78;;;12.55;;
59512;SDS011;45330;51.634;5.562;2023-07-31T00:11:33;33.50;;;12.13;;
59512;SDS011;45330;51.634;5.562;2023-07-31T00:13:58;33.75;;;11.85;;
59512;SDS011;45330;51.634;5.562;2023-07-31T00:16:24;33.53;;;13.32;;
59512;SDS011;45330;51.634;5.562;2023-07-31T00:18:49;31.83;;;11.63;;
59512;SDS011;45330;51.634;5.562;2023-07-31T00:21:14;30.60;;;12.15;;
59512;SDS011;45330;51.634;5.562;2023-07-31T00:23:40;32.13;;;13.30;;
59512;SDS011;45330;51.634;5.562;2023-07-31T00:26:05;32.28;;;12.27;;
59512;SDS011;45330;51.634;5.562;2023-07-31T00:28:31;32.85;;;12.07;;
59512;SDS011;45330;51.634;5.562;2023-07-31T00:30:56;32.78;;;13.07;;
59512;SDS011;45330;51.634;5.562;2023-07-31T00:33:21;29.25;;;11.50;;
59512;SDS011;45330;51.634;5.562;2023-07-31T00:35:48;29.35;;;11.00;;
59512;SDS011;45330;51.634;5.562;2023-07-31T00:38:13;28.27;;;10.85;;
59512;SDS011;45330;51.634;5.562;2023-07-31T00:40:39;26.45;;;10.27;;
59512;SDS011;45330;51.634;5.562;2023-07-31T00:43:04;30.20;;;11.15;;
59512;SDS011;45330;51.634;5.562;2023-07-31T00:45:30;28.88;;;10.68;;
59512;SDS011;45330;51.634;5.562;2023-07-31T00:47:56;30.67;;;11.23;;
59512;SDS011;45330;51.634;5.562;2023-07-31T00:50:22;31.38;;;10.77;;
59512;SDS011;45330;51.634;5.562;2023-07-31T00:52:49;28.23;;;11.07;;
59512;SDS011;45330;51.634;5.562;2023-07-31T00:55:15;29.30;;;10.00;;
59512;SDS011;45330;51.634;5.562;2023-07-31T00:57:41;28.10;;;10.40;;
59512;SDS011;45330;51.634;5.562;2023-07-31T01:00:07;29.65;;;9.63;;
59512;SDS011;45330;51.634;5.562;2023-07-31T01:02:33;31.02;;;9.82;;
59512;SDS011;45330;51.634;5.562;2023-07-31T01:04:58;23.80;;;9.23;;
59512;SDS011;45330;51.634;5.562;2023-07-31T01:07:35;27.45;;;8.90;;
59512;SDS011;45330;51.634;5.562;2023-07-31T01:10:26;26.98;;;9.10;;
59512;SDS011;45330;51.634;5.562;2023-07-31T01:12:59;26.95;;;9.07;;
59512;SDS011;45330;51.634;5.562;2023-07-31T01:15:24;29.83;;;9.13;;
59512;SDS011;45330;51.634;5.562;2023-07-31T01:17:49;26.52;;;8.93;;
59512;SDS011;45330;51.634;5.562;2023-07-31T01:20:22;26.80;;;9.07;;
59512;SDS011;45330;51.634;5.562;2023-07-31T01:28:19;23.35;;;8.00;;
59512;SDS011;45330;51.634;5.562;2023-07-31T01:30:50;26.63;;;8.10;;
59512;SDS011;45330;51.634;5.562;2023-07-31T01:33:16;24.95;;;7.22;;
59512;SDS011;45330;51.634;5.562;2023-07-31T01:35:43;27.65;;;8.02;;
59512;SDS011;45330;51.634;5.562;2023-07-31T01:38:09;22.60;;;7.70;;
59512;SDS011;45330;51.634;5.562;2023-07-31T01:40:35;24.98;;;7.97;;
59512;SDS011;45330;51.634;5.562;2023-07-31T01:43:00;23.77;;;7.47;;
59512;SDS011;45330;51.634;5.562;2023-07-31T01:45:26;26.13;;;8.27;;
59512;SDS011;45330;51.634;5.562;2023-07-31T01:47:51;23.75;;;7.25;;
59512;SDS011;45330;51.634;5.562;2023-07-31T01:50:17;24.92;;;7.75;;
59512;SDS011;45330;51.634;5.562;2023-07-31T01:52:42;27.73;;;7.60;;
59512;SDS011;45330;51.634;5.562;2023-07-31T01:55:07;26.83;;;7.25;;
59512;SDS011;45330;51.634;5.562;2023-07-31T01:57:33;23.77;;;7.22;;
59512;SDS011;45330;51.634;5.562;2023-07-31T01:59:58;24.33;;;7.45;;
59512;SDS011;45330;51.634;5.562;2023-07-31T02:02:24;25.00;;;6.93;;
59512;SDS011;45330;51.634;5.562;2023-07-31T02:04:49;23.63;;;6.95;;
59512;SDS011;45330;51.634;5.562;2023-07-31T02:07:15;24.20;;;7.40;;
59512;SDS011;45330;51.634;5.562;2023-07-31T02:09:40;29.77;;;8.30;;
59512;SDS011;45330;51.634;5.562;2023-07-31T02:12:06;23.02;;;6.78;;
59512;SDS011;45330;51.634;5.562;2023-07-31T02:14:33;22.80;;;7.03;;
59512;SDS011;45330;51.634;5.562;2023-07-31T02:16:59;21.65;;;6.97;;
59512;SDS011;45330;51.634;5.562;2023-07-31T02:19:24;23.27;;;7.30;;
59512;SDS011;45330;51.634;5.562;2023-07-31T02:21:49;26.13;;;8.05;;
59512;SDS011;45330;51.634;5.562;2023-07-31T02:24:15;25.50;;;7.18;;
59512;SDS011;45330;51.634;5.562;2023-07-31T02:26:40;27.08;;;7.50;;
59512;SDS011;45330;51.634;5.562;2023-07-31T02:29:07;24.08;;;6.90;;
59512;SDS011;45330;51.634;5.562;2023-07-31T02:31:33;22.50;;;6.57;;
59512;SDS011;45330;51.634;5.562;2023-07-31T02:33:58;23.85;;;6.70;;
59512;SDS011;45330;51.634;5.562;2023-07-31T02:36:23;23.92;;;7.10;;
59512;SDS011;45330;51.634;5.562;2023-07-31T02:38:49;25.27;;;7.32;;
59512;SDS011;45330;51.634;5.562;2023-07-31T02:41:14;26.23;;;9.02;;
59512;SDS011;45330;51.634;5.562;2023-07-31T02:43:39;22.65;;;7.00;;
59512;SDS011;45330;51.634;5.562;2023-07-31T02:46:05;21.45;;;6.88;;
59512;SDS011;45330;51.634;5.562;2023-07-31T02:48:30;23.73;;;6.88;;
59512;SDS011;45330;51.634;5.562;2023-07-31T02:50:56;23.23;;;7.70;;
59512;SDS011;45330;51.634;5.562;2023-07-31T02:53:21;24.23;;;7.10;;
59512;SDS011;45330;51.634;5.562;2023-07-31T02:55:48;25.20;;;7.43;;
59512;SDS011;45330;51.634;5.562;2023-07-31T02:58:13;26.08;;;7.20;;
59512;SDS011;45330;51.634;5.562;2023-07-31T03:00:42;24.30;;;7.25;;
59512;SDS011;45330;51.634;5.562;2023-07-31T03:03:10;24.65;;;7.07;;
59512;SDS011;45330;51.634;5.562;2023-07-31T03:05:36;23.45;;;7.18;;
59512;SDS011;45330;51.634;5.562;2023-07-31T03:08:01;22.98;;;7.75;;
59512;SDS011;45330;51.634;5.562;2023-07-31T03:10:27;21.60;;;7.03;;
59512;SDS011;45330;51.634;5.562;2023-07-31T03:12:52;26.75;;;8.00;;
59512;SDS011;45330;51.634;5.562;2023-07-31T03:15:18;25.13;;;7.60;;
59512;SDS011;45330;51.634;5.562;2023-07-31T03:17:43;23.08;;;6.65;;
59512;SDS011;45330;51.634;5.562;2023-07-31T03:20:09;23.85;;;6.90;;
59512;SDS011;45330;51.634;5.562;2023-07-31T03:22:34;22.73;;;7.03;;
59512;SDS011;45330;51.634;5.562;2023-07-31T03:25:00;25.63;;;7.15;;
59512;SDS011;45330;51.634;5.562;2023-07-31T03:27:26;25.15;;;7.15;;
59512;SDS011;45330;51.634;5.562;2023-07-31T03:29:52;22.80;;;7.10;;
59512;SDS011;45330;51.634;5.562;2023-07-31T03:32:17;24.70;;;7.03;;
59512;SDS011;45330;51.634;5.562;2023-07-31T03:34:43;22.90;;;6.72;;
59512;SDS011;45330;51.634;5.562;2023-07-31T03:37:08;25.23;;;7.25;;
59512;SDS011;45330;51.634;5.562;2023-07-31T03:39:34;22.70;;;7.07;;
59512;SDS011;45330;51.634;5.562;2023-07-31T03:42:00;21.10;;;6.20;;
59512;SDS011;45330;51.634;5.562;2023-07-31T03:44:25;22.20;;;6.78;;
59512;SDS011;45330;51.634;5.562;2023-07-31T03:46:50;24.77;;;7.00;;
59512;SDS011;45330;51.634;5.562;2023-07-31T03:49:16;21.75;;;6.32;;
59512;SDS011;45330;51.634;5.562;2023-07-31T03:51:41;24.52;;;7.00;;
59512;SDS011;45330;51.634;5.562;2023-07-31T03:54:07;22.15;;;6.85;;
59512;SDS011;45330;51.634;5.562;2023-07-31T03:56:32;24.13;;;6.60;;
59512;SDS011;45330;51.634;5.562;2023-07-31T03:58:58;22.50;;;6.25;;
59512;SDS011;45330;51.634;5.562;2023-07-31T04:01:23;21.88;;;7.00;;
59512;SDS011;45330;51.634;5.562;2023-07-31T04:03:49;21.30;;;6.10;;
59512;SDS011;45330;51.634;5.562;2023-07-31T04:06:14;24.02;;;6.43;;
59512;SDS011;45330;51.634;5.562;2023-07-31T04:08:43;19.65;;;6.20;;
59512;SDS011;45330;51.634;5.562;2023-07-31T04:11:09;23.50;;;6.15;;
59512;SDS011;45330;51.634;5.562;2023-07-31T04:13:34;20.17;;;6.05;;
59512;SDS011;45330;51.634;5.562;2023-07-31T04:16:00;23.85;;;7.18;;
59512;SDS011;45330;51.634;5.562;2023-07-31T04:18:26;23.20;;;6.25;;
59512;SDS011;45330;51.634;5.562;2023-07-31T04:20:51;23.77;;;6.70;;
59512;SDS011;45330;51.634;5.562;2023-07-31T04:23:17;25.65;;;6.28;;
59512;SDS011;45330;51.634;5.562;2023-07-31T04:25:42;24.48;;;6.25;;
59512;SDS011;45330;51.634;5.562;2023-07-31T04:28:07;20.83;;;6.78;;
59512;SDS011;45330;51.634;5.562;2023-07-31T04:30:33;21.85;;;6.88;;
59512;SDS011;45330;51.634;5.562;2023-07-31T04:32:58;21.33;;;6.18;;
59512;SDS011;45330;51.634;5.562;2023-07-31T04:35:24;23.02;;;6.18;;
59512;SDS011;45330;51.634;5.562;2023-07-31T04:37:49;21.92;;;6.72;;
59512;SDS011;45330;51.634;5.562;2023-07-31T04:40:15;20.77;;;5.82;;
59512;SDS011;45330;51.634;5.562;2023-07-31T04:42:41;20.52;;;6.57;;
59512;SDS011;45330;51.634;5.562;2023-07-31T04:45:07;22.23;;;6.45;;
59512;SDS011;45330;51.634;5.562;2023-07-31T04:47:33;22.30;;;6.25;;
59512;SDS011;45330;51.634;5.562;2023-07-31T04:49:58;22.65;;;6.40;;
59512;SDS011;45330;51.634;5.562;2023-07-31T04:52:24;23.00;;;6.07;;
59512;SDS011;45330;51.634;5.562;2023-07-31T04:54:49;20.98;;;6.53;;
59512;SDS011;45330;51.634;5.562;2023-07-31T04:57:14;23.17;;;6.20;;
59512;SDS011;45330;51.634;5.562;2023-07-31T04:59:40;21.48;;;5.65;;
59512;SDS011;45330;51.634;5.562;2023-07-31T05:02:06;20.45;;;6.15;;
59512;SDS011;45330;51.634;5.562;2023-07-31T05:04:33;23.75;;;6.95;;
59512;SDS011;45330;51.634;5.562;2023-07-31T05:06:59;21.70;;;5.85;;
59512;SDS011;45330;51.634;5.562;2023-07-31T05:09:24;20.52;;;6.15;;
59512;SDS011;45330;51.634;5.562;2023-07-31T05:11:49;18.88;;;6.00;;
59512;SDS011;45330;51.634;5.562;2023-07-31T05:14:15;19.48;;;6.40;;
59512;SDS011;45330;51.634;5.562;2023-07-31T05:16:41;20.25;;;6.18;;
59512;SDS011;45330;51.634;5.562;2023-07-31T05:19:06;22.48;;;6.63;;
59512;SDS011;45330;51.634;5.562;2023-07-31T05:21:31;23.63;;;7.05;;
59512;SDS011;45330;51.634;5.562;2023-07-31T05:23:57;21.55;;;6.68;;
59512;SDS011;45330;51.634;5.562;2023-07-31T05:26:22;23.83;;;6.18;;
59512;SDS011;45330;51.634;5.562;2023-07-31T05:28:48;21.05;;;6.35;;
59512;SDS011;45330;51.634;5.562;2023-07-31T05:31:13;22.08;;;7.07;;
59512;SDS011;45330;51.634;5.562;2023-07-31T05:33:39;22.50;;;7.63;;
59512;SDS011;45330;51.634;5.562;2023-07-31T05:36:04;23.60;;;7.00;;
59512;SDS011;45330;51.634;5.562;2023-07-31T05:38:29;20.70;;;6.88;;
59512;SDS011;45330;51.634;5.562;2023-07-31T05:40:55;20.02;;;6.22;;
59512;SDS011;45330;51.634;5.562;2023-07-31T05:43:20;21.58;;;7.05;;
59512;SDS011;45330;51.634;5.562;2023-07-31T05:45:47;21.60;;;7.13;;
59512;SDS011;45330;51.634;5.562;2023-07-31T05:48:12;18.75;;;6.55;;
59512;SDS011;45330;51.634;5.562;2023-07-31T05:50:38;21.23;;;6.60;;
59512;SDS011;45330;51.634;5.562;2023-07-31T05:53:04;20.60;;;7.38;;
59512;SDS011;45330;51.634;5.562;2023-07-31T05:55:30;19.83;;;6.75;;
59512;SDS011;45330;51.634;5.562;2023-07-31T05:57:55;19.45;;;6.13;;
59512;SDS011;45330;51.634;5.562;2023-07-31T06:00:21;18.33;;;6.57;;
59512;SDS011;45330;51.634;5.562;2023-07-31T06:02:47;21.10;;;6.80;;
59512;SDS011;45330;51.634;5.562;2023-07-31T06:05:13;16.77;;;5.78;;
59512;SDS011;45330;51.634;5.562;2023-07-31T06:07:38;17.83;;;5.53;;
59512;SDS011;45330;51.634;5.562;2023-07-31T06:10:04;16.27;;;5.55;;
59512;SDS011;45330;51.634;5.562;2023-07-31T06:12:33;17.85;;;5.57;;
59512;SDS011;45330;51.634;5.562;2023-07-31T06:14:59;17.33;;;5.57;;
59512;SDS011;45330;51.634;5.562;2023-07-31T06:17:25;17.20;;;5.68;;
59512;SDS011;45330;51.634;5.562;2023-07-31T06:19:54;17.00;;;5.40;;
59512;SDS011;45330;51.634;5.562;2023-07-31T06:22:19;17.58;;;5.47;;
59512;SDS011;45330;51.634;5.562;2023-07-31T06:24:45;15.65;;;4.85;;
59512;SDS011;45330;51.634;5.562;2023-07-31T06:27:11;13.38;;;4.55;;
59512;SDS011;45330;51.634;5.562;2023-07-31T06:29:36;12.45;;;4.63;;
59512;SDS011;45330;51.634;5.562;2023-07-31T06:32:02;13.15;;;4.65;;
59512;SDS011;45330;51.634;5.562;2023-07-31T06:34:28;11.85;;;4.20;;
59512;SDS011;45330;51.634;5.562;2023-07-31T06:36:55;14.43;;;4.57;;
59512;SDS011;45330;51.634;5.562;2023-07-31T06:39:21;17.17;;;4.70;;
59512;SDS011;45330;51.634;5.562;2023-07-31T06:41:46;11.98;;;4.40;;
59512;SDS011;45330;51.634;5.562;2023-07-31T06:44:12;14.90;;;4.75;;
59512;SDS011;45330;51.634;5.562;2023-07-31T06:46:37;12.07;;;4.28;;
59512;SDS011;45330;51.634;5.562;2023-07-31T06:49:03;14.80;;;4.80;;
59512;SDS011;45330;51.634;5.562;2023-07-31T06:51:28;12.43;;;4.68;;
59512;SDS011;45330;51.634;5.562;2023-07-31T06:53:56;13.05;;;4.57;;
59512;SDS011;45330;51.634;5.562;2023-07-31T06:56:21;11.60;;;4.80;;
59512;SDS011;45330;51.634;5.562;2023-07-31T06:58:47;13.13;;;4.78;;
59512;SDS011;45330;51.634;5.562;2023-07-31T07:01:12;15.60;;;5.00;;
59512;SDS011;45330;51.634;5.562;2023-07-31T07:03:38;13.70;;;4.78;;
59512;SDS011;45330;51.634;5.562;2023-07-31T07:06:04;13.75;;;5.22;;
59512;SDS011;45330;51.634;5.562;2023-07-31T07:08:29;15.98;;;5.40;;
59512;SDS011;45330;51.634;5.562;2023-07-31T07:10:54;13.65;;;5.10;;
59512;SDS011;45330;51.634;5.562;2023-07-31T07:13:20;14.27;;;5.22;;
59512;SDS011;45330;51.634;5.562;2023-07-31T07:15:49;11.95;;;4.90;;
59512;SDS011;45330;51.634;5.562;2023-07-31T07:18:15;14.02;;;5.00;;
59512;SDS011;45330;51.634;5.562;2023-07-31T07:20:46;14.38;;;5.05;;
59512;SDS011;45330;51.634;5.562;2023-07-31T07:23:12;12.07;;;5.22;;
59512;SDS011;45330;51.634;5.562;2023-07-31T07:25:38;11.35;;;4.97;;
59512;SDS011;45330;51.634;5.562;2023-07-31T07:28:03;12.00;;;4.72;;
59512;SDS011;45330;51.634;5.562;2023-07-31T07:30:28;10.52;;;4.57;;
59512;SDS011;45330;51.634;5.562;2023-07-31T07:32:54;11.02;;;4.75;;
59512;SDS011;45330;51.634;5.562;2023-07-31T07:35:19;11.77;;;4.90;;
59512;SDS011;45330;51.634;5.562;2023-07-31T07:37:45;11.93;;;4.43;;
59512;SDS011;45330;51.634;5.562;2023-07-31T07:40:10;12.05;;;4.70;;
59512;SDS011;45330;51.634;5.562;2023-07-31T07:42:35;13.88;;;4.50;;
59512;SDS011;45330;51.634;5.562;2023-07-31T07:45:01;9.05;;;4.05;;
59512;SDS011;45330;51.634;5.562;2023-07-31T07:47:27;12.05;;;4.50;;
59512;SDS011;45330;51.634;5.562;2023-07-31T07:49:52;11.80;;;4.13;;
59512;SDS011;45330;51.634;5.562;2023-07-31T07:52:17;12.20;;;4.60;;
59512;SDS011;45330;51.634;5.562;2023-07-31T07:54:43;12.15;;;4.80;;
59512;SDS011;45330;51.634;5.562;2023-07-31T07:57:08;11.10;;;4.57;;
59512;SDS011;45330;51.634;5.562;2023-07-31T07:59:33;13.55;;;4.68;;
59512;SDS011;45330;51.634;5.562;2023-07-31T08:01:59;11.70;;;4.88;;
59512;SDS011;45330;51.634;5.562;2023-07-31T08:04:24;15.43;;;5.35;;
59512;SDS011;45330;51.634;5.562;2023-07-31T08:06:49;13.57;;;5.35;;
59512;SDS011;45330;51.634;5.562;2023-07-31T08:09:15;15.63;;;5.65;;
59512;SDS011;45330;51.634;5.562;2023-07-31T08:11:40;13.77;;;5.95;;
59512;SDS011;45330;51.634;5.562;2023-07-31T08:14:06;17.85;;;6.82;;
59512;SDS011;45330;51.634;5.562;2023-07-31T08:16:31;14.27;;;6.88;;
59512;SDS011;45330;51.634;5.562;2023-07-31T08:18:57;17.00;;;6.90;;
59512;SDS011;45330;51.634;5.562;2023-07-31T08:21:22;15.80;;;5.90;;
59512;SDS011;45330;51.634;5.562;2023-07-31T08:23:48;17.52;;;6.57;;
59512;SDS011;45330;51.634;5.562;2023-07-31T08:26:17;15.02;;;6.30;;
59512;SDS011;45330;51.634;5.562;2023-07-31T08:28:43;15.27;;;5.63;;
59512;SDS011;45330;51.634;5.562;2023-07-31T08:31:08;13.70;;;6.25;;
59512;SDS011;45330;51.634;5.562;2023-07-31T08:33:34;14.43;;;5.85;;
59512;SDS011;45330;51.634;5.562;2023-07-31T08:35:59;16.27;;;5.75;;
59512;SDS011;45330;51.634;5.562;2023-07-31T08:38:26;15.68;;;5.82;;
59512;SDS011;45330;51.634;5.562;2023-07-31T08:40:51;16.23;;;6.05;;
59512;SDS011;45330;51.634;5.562;2023-07-31T08:43:17;14.45;;;6.13;;
59512;SDS011;45330;51.634;5.562;2023-07-31T08:45:44;13.55;;;5.40;;
59512;SDS011;45330;51.634;5.562;2023-07-31T08:48:09;14.60;;;5.70;;
59512;SDS011;45330;51.634;5.562;2023-07-31T08:50:36;14.02;;;5.85;;
59512;SDS011;45330;51.634;5.562;2023-07-31T08:53:03;17.00;;;6.20;;
59512;SDS011;45330;51.634;5.562;2023-07-31T08:55:28;16.95;;;6.38;;
59512;SDS011;45330;51.634;5.562;2023-07-31T08:57:54;16.88;;;6.40;;
59512;SDS011;45330;51.634;5.562;2023-07-31T09:00:20;17.45;;;6.20;;
59512;SDS011;45330;51.634;5.562;2023-07-31T09:02:56;17.05;;;6.90;;
59512;SDS011;45330;51.634;5.562;2023-07-31T09:05:43;19.33;;;6.88;;
59512;SDS011;45330;51.634;5.562;2023-07-31T09:08:11;16.75;;;6.72;;
59512;SDS011;45330;51.634;5.562;2023-07-31T09:10:41;18.48;;;7.63;;
59512;SDS011;45330;51.634;5.562;2023-07-31T09:13:07;17.65;;;7.30;;
59512;SDS011;45330;51.634;5.562;2023-07-31T09:15:33;17.40;;;7.45;;
59512;SDS011;45330;51.634;5.562;2023-07-31T09:18:00;20.27;;;7.22;;
59512;SDS011;45330;51.634;5.562;2023-07-31T09:20:26;19.35;;;7.43;;
59512;SDS011;45330;51.634;5.562;2023-07-31T09:22:52;20.27;;;7.45;;
59512;SDS011;45330;51.634;5.562;2023-07-31T09:25:18;19.17;;;7.22;;
59512;SDS011;45330;51.634;5.562;2023-07-31T09:27:46;18.60;;;7.20;;
59512;SDS011;45330;51.634;5.562;2023-07-31T09:30:12;18.23;;;7.28;;
59512;SDS011;45330;51.634;5.562;2023-07-31T09:32:38;20.70;;;7.78;;
59512;SDS011;45330;51.634;5.562;2023-07-31T09:35:13;19.80;;;7.93;;
59512;SDS011;45330;51.634;5.562;2023-07-31T09:37:49;17.55;;;7.13;;
59512;SDS011;45330;51.634;5.562;2023-07-31T09:43:14;18.42;;;7.63;;
59512;SDS011;45330;51.634;5.562;2023-07-31T09:45:44;17.73;;;7.28;;
59512;SDS011;45330;51.634;5.562;2023-07-31T09:48:14;19.80;;;7.60;;
59512;SDS011;45330;51.634;5.562;2023-07-31T09:50:42;17.20;;;6.68;;
59512;SDS011;45330;51.634;5.562;2023-07-31T09:53:09;18.08;;;7.03;;
59512;SDS011;45330;51.634;5.562;2023-07-31T09:55:35;16.50;;;7.30;;
59512;SDS011;45330;51.634;5.562;2023-07-31T09:58:06;18.00;;;7.03;;
59512;SDS011;45330;51.634;5.562;2023-07-31T10:00:32;16.38;;;6.55;;
59512;SDS011;45330;51.634;5.562;2023-07-31T10:02:59;17.13;;;6.65;;
59512;SDS011;45330;51.634;5.562;2023-07-31T10:05:33;18.58;;;6.72;;
59512;SDS011;45330;51.634;5.562;2023-07-31T10:08:00;17.70;;;6.20;;
59512;SDS011;45330;51.634;5.562;2023-07-31T10:10:25;15.73;;;5.68;;
59512;SDS011;45330;51.634;5.562;2023-07-31T10:12:52;15.77;;;6.20;;
59512;SDS011;45330;51.634;5.562;2023-07-31T10:15:19;13.70;;;5.22;;
59512;SDS011;45330;51.634;5.562;2023-07-31T10:17:48;15.73;;;5.80;;
59512;SDS011;45330;51.634;5.562;2023-07-31T10:20:14;15.48;;;5.70;;
59512;SDS011;45330;51.634;5.562;2023-07-31T10:22:41;14.95;;;5.80;;
59512;SDS011;45330;51.634;5.562;2023-07-31T10:25:08;14.63;;;5.22;;
59512;SDS011;45330;51.634;5.562;2023-07-31T10:27:35;15.57;;;5.40;;
59512;SDS011;45330;51.634;5.562;2023-07-31T10:30:01;14.40;;;5.32;;
59512;SDS011;45330;51.634;5.562;2023-07-31T10:32:30;14.48;;;5.30;;
59512;SDS011;45330;51.634;5.562;2023-07-31T10:34:56;14.13;;;5.38;;
59512;SDS011;45330;51.634;5.562;2023-07-31T10:37:23;14.30;;;5.25;;
59512;SDS011;45330;51.634;5.562;2023-07-31T10:40:50;13.73;;;4.90;;
59512;SDS011;45330;51.634;5.562;2023-07-31T10:42:50;14.10;;;5.47;;
59512;SDS011;45330;51.634;5.562;2023-07-31T10:47:59;11.20;;;4.20;;
59512;SDS011;45330;51.634;5.562;2023-07-31T10:50:26;11.60;;;4.60;;
59512;SDS011;45330;51.634;5.562;2023-07-31T10:52:52;14.95;;;4.38;;
59512;SDS011;45330;51.634;5.562;2023-07-31T10:57:54;9.43;;;3.90;;
59512;SDS011;45330;51.634;5.562;2023-07-31T11:00:25;13.40;;;4.45;;
59512;SDS011;45330;51.634;5.562;2023-07-31T11:02:59;14.13;;;4.45;;
59512;SDS011;45330;51.634;5.562;2023-07-31T11:06:12;13.65;;;5.05;;
59512;SDS011;45330;51.634;5.562;2023-07-31T11:08:30;12.68;;;4.53;;
59512;SDS011;45330;51.634;5.562;2023-07-31T11:13:26;12.43;;;4.93;;
59512;SDS011;45330;51.634;5.562;2023-07-31T11:15:55;10.65;;;4.60;;
59512;SDS011;45330;51.634;5.562;2023-07-31T11:18:21;9.15;;;4.30;;
59512;SDS011;45330;51.634;5.562;2023-07-31T11:20:46;13.07;;;4.65;;
59512;SDS011;45330;51.634;5.562;2023-07-31T11:23:12;12.63;;;4.15;;
59512;SDS011;45330;51.634;5.562;2023-07-31T11:25:39;13.98;;;4.80;;
59512;SDS011;45330;51.634;5.562;2023-07-31T11:28:10;11.93;;;4.30;;
59512;SDS011;45330;51.634;5.562;2023-07-31T11:30:37;9.63;;;4.23;;
59512;SDS011;45330;51.634;5.562;2023-07-31T11:33:05;12.15;;;4.70;;
59512;SDS011;45330;51.634;5.562;2023-07-31T11:35:34;13.60;;;4.40;;
59512;SDS011;45330;51.634;5.562;2023-07-31T11:38:06;11.90;;;4.60;;
59512;SDS011;45330;51.634;5.562;2023-07-31T11:40:40;12.57;;;4.35;;
59512;SDS011;45330;51.634;5.562;2023-07-31T11:43:06;11.23;;;4.28;;
59512;SDS011;45330;51.634;5.562;2023-07-31T11:45:32;13.25;;;4.30;;
59512;SDS011;45330;51.634;5.562;2023-07-31T11:47:58;13.85;;;4.40;;
59512;SDS011;45330;51.634;5.562;2023-07-31T11:50:23;12.27;;;4.50;;
59512;SDS011;45330;51.634;5.562;2023-07-31T11:52:52;11.20;;;4.22;;
59512;SDS011;45330;51.634;5.562;2023-07-31T11:55:31;9.30;;;4.18;;
59512;SDS011;45330;51.634;5.562;2023-07-31T11:57:57;10.48;;;4.13;;
59512;SDS011;45330;51.634;5.562;2023-07-31T12:00:24;11.80;;;4.15;;
59512;SDS011;45330;51.634;5.562;2023-07-31T12:02:51;8.07;;;3.80;;
59512;SDS011;45330;51.634;5.562;2023-07-31T12:05:17;10.80;;;3.75;;
59512;SDS011;45330;51.634;5.562;2023-07-31T12:07:49;9.13;;;3.47;;
59512;SDS011;45330;51.634;5.562;2023-07-31T12:10:31;7.22;;;3.33;;
59512;SDS011;45330;51.634;5.562;2023-07-31T12:15:58;7.80;;;3.30;;
59512;SDS011;45330;51.634;5.562;2023-07-31T12:18:19;7.22;;;3.15;;
59512;SDS011;45330;51.634;5.562;2023-07-31T12:20:46;8.18;;;3.70;;
59512;SDS011;45330;51.634;5.562;2023-07-31T12:23:21;7.82;;;3.10;;
59512;SDS011;45330;51.634;5.562;2023-07-31T12:28:42;9.05;;;3.58;;
59512;SDS011;45330;51.634;5.562;2023-07-31T12:31:17;9.18;;;3.78;;
59512;SDS011;45330;51.634;5.562;2023-07-31T12:33:44;11.07;;;3.83;;
59512;SDS011;45330;51.634;5.562;2023-07-31T12:36:12;10.38;;;4.00;;
59512;SDS011;45330;51.634;5.562;2023-07-31T12:38:38;9.43;;;3.40;;
59512;SDS011;45330;51.634;5.562;2023-07-31T12:41:04;9.85;;;4.03;;
59512;SDS011;45330;51.634;5.562;2023-07-31T12:43:32;11.57;;;3.90;;
59512;SDS011;45330;51.634;5.562;2023-07-31T12:45:58;10.35;;;3.95;;
59512;SDS011;45330;51.634;5.562;2023-07-31T12:48:24;9.77;;;4.05;;
59512;SDS011;45330;51.634;5.562;2023-07-31T12:50:49;12.57;;;4.50;;
59512;SDS011;45330;51.634;5.562;2023-07-31T12:53:15;13.65;;;4.47;;
59512;SDS011;45330;51.634;5.562;2023-07-31T12:55:41;12.55;;;4.85;;
59512;SDS011;45330;51.634;5.562;2023-07-31T12:58:06;10.00;;;4.35;;
59512;SDS011;45330;51.634;5.562;2023-07-31T13:00:32;12.38;;;4.78;;
59512;SDS011;45330;51.634;5.562;2023-07-31T13:02:57;11.82;;;4.93;;
59512;SDS011;45330;51.634;5.562;2023-07-31T13:05:23;15.88;;;5.47;;
59512;SDS011;45330;51.634;5.562;2023-07-31T13:07:48;13.60;;;5.55;;
59512;SDS011;45330;51.634;5.562;2023-07-31T13:10:14;15.68;;;5.57;;
59512;SDS011;45330;51.634;5.562;2023-07-31T13:12:39;16.17;;;5.75;;
59512;SDS011;45330;51.634;5.562;2023-07-31T13:15:05;16.05;;;5.97;;
59512;SDS011;45330;51.634;5.562;2023-07-31T13:17:31;15.75;;;5.78;;
59512;SDS011;45330;51.634;5.562;2023-07-31T13:19:56;16.75;;;6.00;;
59512;SDS011;45330;51.634;5.562;2023-07-31T13:22:22;15.98;;;6.10;;
59512;SDS011;45330;51.634;5.562;2023-07-31T13:24:48;15.40;;;5.90;;
59512;SDS011;45330;51.634;5.562;2023-07-31T13:27:13;15.57;;;6.03;;
59512;SDS011;45330;51.634;5.562;2023-07-31T13:29:43;15.57;;;5.85;;
59512;SDS011;45330;51.634;5.562;2023-07-31T13:32:08;15.18;;;5.93;;
59512;SDS011;45330;51.634;5.562;2023-07-31T13:34:34;14.45;;;5.80;;
59512;SDS011;45330;51.634;5.562;2023-07-31T13:36:59;16.10;;;5.95;;
59512;SDS011;45330;51.634;5.562;2023-07-31T13:39:24;13.02;;;5.60;;
59512;SDS011;45330;51.634;5.562;2023-07-31T13:41:50;18.02;;;6.03;;
59512;SDS011;45330;51.634;5.562;2023-07-31T13:44:15;16.33;;;5.10;;
59512;SDS011;45330;51.634;5.562;2023-07-31T13:46:41;14.73;;;5.30;;
59512;SDS011;45330;51.634;5.562;2023-07-31T13:49:06;16.20;;;5.47;;
59512;SDS011;45330;51.634;5.562;2023-07-31T13:51:31;14.05;;;5.05;;
59512;SDS011;45330;51.634;5.562;2023-07-31T13:53:57;15.15;;;4.93;;
59512;SDS011;45330;51.634;5.562;2023-07-31T13:56:22;13.57;;;5.20;;
59512;SDS011;45330;51.634;5.562;2023-07-31T13:58:48;14.00;;;5.65;;
59512;SDS011;45330;51.634;5.562;2023-07-31T14:01:13;17.42;;;5.60;;
59512;SDS011;45330;51.634;5.562;2023-07-31T14:03:39;14.93;;;6.10;;
59512;SDS011;45330;51.634;5.562;2023-07-31T14:06:04;17.25;;;6.10;;
59512;SDS011;45330;51.634;5.562;2023-07-31T14:08:29;15.25;;;5.68;;
59512;SDS011;45330;51.634;5.562;2023-07-31T14:10:56;17.90;;;6.32;;
59512;SDS011;45330;51.634;5.562;2023-07-31T14:13:21;15.63;;;5.45;;
59512;SDS011;45330;51.634;5.562;2023-07-31T14:15:47;17.70;;;6.18;;
59512;SDS011;45330;51.634;5.562;2023-07-31T14:18:12;17.42;;;6.00;;
59512;SDS011;45330;51.634;5.562;2023-07-31T14:20:38;16.25;;;5.80;;
59512;SDS011;45330;51.634;5.562;2023-07-31T14:23:03;15.60;;;5.90;;
59512;SDS011;45330;51.634;5.562;2023-07-31T14:25:29;17.52;;;6.38;;
59512;SDS011;45330;51.634;5.562;2023-07-31T14:27:54;15.55;;;6.18;;
59512;SDS011;45330;51.634;5.562;2023-07-31T14:30:20;18.55;;;6.82;;
59512;SDS011;45330;51.634;5.562;2023-07-31T14:32:45;16.33;;;5.85;;
59512;SDS011;45330;51.634;5.562;2023-07-31T14:35:11;16.55;;;6.60;;
59512;SDS011;45330;51.634;5.562;2023-07-31T14:37:40;17.63;;;7.30;;
59512;SDS011;45330;51.634;5.562;2023-07-31T14:40:10;16.73;;;6.03;;
59512;SDS011;45330;51.634;5.562;2023-07-31T14:42:36;17.55;;;6.65;;
59512;SDS011;45330;51.634;5.562;2023-07-31T14:45:05;16.58;;;6.13;;
59512;SDS011;45330;51.634;5.562;2023-07-31T14:47:32;17.67;;;5.93;;
59512;SDS011;45330;51.634;5.562;2023-07-31T14:49:57;17.42;;;5.80;;
59512;SDS011;45330;51.634;5.562;2023-07-31T14:52:26;18.42;;;6.70;;